createdAt,value
2023-05-10T00:00:07.130Z,8.65
2023-05-10T00:02:41.786Z,8.65
2023-05-10T00:05:10.333Z,8.61
2023-05-10T00:07:38.283Z,8.58
2023-05-10T00:10:06.523Z,8.65
2023-05-10T00:12:34.490Z,8.60
2023-05-10T00:15:03.980Z,8.64
2023-05-10T00:17:34.827Z,8.61
2023-05-10T00:20:02.959Z,8.59
2023-05-10T00:22:32.906Z,8.59
2023-05-10T00:25:01.052Z,8.62
2023-05-10T00:27:29.277Z,8.56
2023-05-10T00:29:57.104Z,8.57
2023-05-10T00:32:24.960Z,8.58
2023-05-10T00:34:53.229Z,8.61
2023-05-10T00:37:21.080Z,8.65
2023-05-10T00:39:48.904Z,8.64
2023-05-10T00:42:16.796Z,8.65
2023-05-10T00:44:47.839Z,8.65
2023-05-10T00:47:17.149Z,8.65
2023-05-10T00:49:45.319Z,8.66
2023-05-10T00:52:13.104Z,8.68
2023-05-10T00:54:41.006Z,8.68
2023-05-10T00:57:08.902Z,8.65
2023-05-10T00:59:36.790Z,8.66
2023-05-10T01:02:05.056Z,8.71
2023-05-10T01:04:33.056Z,8.72
2023-05-10T01:07:00.995Z,8.68
2023-05-10T01:09:29.062Z,8.72
2023-05-10T01:11:57.854Z,8.71
2023-05-10T01:14:26.880Z,8.73
2023-05-10T01:16:55.397Z,8.76
2023-05-10T01:19:26.666Z,8.78
2023-05-10T01:22:24.182Z,8.79
2023-05-10T01:24:58.171Z,8.81
2023-05-10T01:27:25.901Z,8.81
2023-05-10T01:30:15.846Z,8.80
2023-05-10T01:32:56.505Z,8.80
2023-05-10T01:35:28.221Z,8.74
2023-05-10T01:38:17.234Z,8.78
2023-05-10T01:41:19.361Z,8.76
2023-05-10T01:43:59.079Z,8.75
2023-05-10T01:46:38.177Z,8.77
2023-05-10T01:49:15.504Z,8.76
2023-05-10T01:51:49.429Z,8.74
2023-05-10T01:54:19.114Z,8.77
2023-05-10T01:56:49.465Z,8.79
2023-05-10T01:59:19.749Z,8.80
2023-05-10T02:01:48.788Z,8.79
2023-05-10T02:04:18.855Z,8.74
2023-05-10T02:06:49.546Z,8.79
2023-05-10T02:09:17.930Z,8.77
2023-05-10T02:11:45.678Z,8.83
2023-05-10T02:14:14.290Z,8.85
2023-05-10T02:16:42.781Z,8.86
2023-05-10T02:19:12.543Z,8.82
2023-05-10T02:22:01.057Z,8.88
2023-05-10T02:24:29.576Z,8.85
2023-05-10T02:26:57.595Z,8.90
2023-05-10T02:29:26.956Z,8.90
2023-05-10T02:31:56.591Z,8.91
2023-05-10T02:34:27.141Z,8.92
2023-05-10T02:36:56.452Z,9.01
2023-05-10T02:39:25.841Z,9.03
2023-05-10T02:41:53.810Z,9.06
2023-05-10T02:44:21.972Z,9.11
2023-05-10T02:46:49.778Z,9.14
2023-05-10T02:49:17.964Z,9.18
2023-05-10T02:51:50.593Z,9.26
2023-05-10T02:54:24.354Z,9.29
2023-05-10T02:56:56.038Z,9.36
2023-05-10T02:59:23.827Z,9.37
2023-05-10T03:01:51.717Z,9.40
2023-05-10T03:04:20.042Z,9.42
2023-05-10T03:06:48.163Z,9.47
2023-05-10T03:09:16.807Z,9.50
2023-05-10T03:11:50.619Z,9.56
2023-05-10T03:14:21.461Z,9.63
2023-05-10T03:17:16.695Z,9.66
2023-05-10T03:19:52.063Z,9.67
2023-05-10T03:22:29.130Z,9.83
2023-05-10T03:25:01.705Z,9.88
2023-05-10T03:27:41.495Z,9.93
2023-05-10T03:30:10.547Z,10.01
2023-05-10T03:32:38.928Z,10.03
2023-05-10T03:35:15.365Z,10.09
2023-05-10T03:37:43.464Z,10.15
2023-05-10T03:40:11.740Z,10.21
2023-05-10T03:42:42.511Z,10.28
2023-05-10T03:45:10.860Z,10.29
2023-05-10T03:47:38.681Z,10.42
2023-05-10T03:50:07.459Z,10.43
2023-05-10T03:52:35.430Z,10.54
2023-05-10T03:55:04.771Z,10.60
2023-05-10T03:57:32.680Z,10.71
2023-05-10T04:00:01.559Z,10.79
2023-05-10T04:02:34.080Z,10.86
2023-05-10T04:05:02.397Z,10.94
2023-05-10T04:07:31.070Z,11.02
2023-05-10T04:09:58.991Z,11.11
2023-05-10T04:12:26.824Z,11.11
2023-05-10T04:14:54.856Z,11.23
2023-05-10T04:17:22.729Z,11.25
2023-05-10T04:19:50.709Z,11.39
2023-05-10T04:22:18.682Z,11.49
2023-05-10T04:24:46.577Z,11.50
2023-05-10T04:27:14.383Z,11.66
2023-05-10T04:29:46.933Z,11.76
2023-05-10T04:32:14.719Z,11.89
2023-05-10T04:34:42.536Z,12.01
2023-05-10T04:37:10.505Z,12.07
2023-05-10T04:39:40.225Z,12.11
2023-05-10T04:42:09.538Z,12.23
2023-05-10T04:44:37.514Z,12.27
2023-05-10T04:47:05.775Z,12.32
2023-05-10T04:49:33.562Z,12.39
2023-05-10T04:52:01.320Z,12.45
2023-05-10T04:54:29.312Z,12.56
2023-05-10T04:56:57.152Z,12.64
2023-05-10T04:59:24.928Z,12.77
2023-05-10T05:01:52.858Z,12.84
2023-05-10T05:04:24.630Z,13.01
2023-05-10T05:06:53.923Z,13.17
2023-05-10T05:09:22.046Z,13.31
2023-05-10T05:11:50.087Z,13.50
2023-05-10T05:14:17.859Z,13.78
2023-05-10T05:16:45.686Z,14.04
2023-05-10T05:19:13.479Z,14.28
2023-05-10T05:21:41.239Z,14.63
2023-05-10T05:24:10.063Z,14.83
2023-05-10T05:26:38.009Z,14.93
2023-05-10T05:29:05.875Z,15.08
2023-05-10T05:31:33.805Z,15.26
2023-05-10T05:34:01.602Z,15.49
2023-05-10T05:36:29.565Z,15.66
2023-05-10T05:38:57.329Z,15.88
2023-05-10T05:41:25.810Z,15.99
2023-05-10T05:43:53.964Z,15.98
2023-05-10T05:46:21.808Z,15.99
2023-05-10T05:48:49.714Z,16.04
2023-05-10T05:51:17.494Z,16.13
2023-05-10T05:53:45.442Z,16.38
2023-05-10T05:56:13.267Z,16.65
2023-05-10T05:58:41.163Z,16.92
2023-05-10T06:01:10.103Z,17.19
2023-05-10T06:03:38.012Z,17.35
2023-05-10T06:06:06.077Z,17.46
2023-05-10T06:08:35.024Z,17.46
2023-05-10T06:11:03.258Z,17.48
2023-05-10T06:13:33.691Z,17.69
2023-05-10T06:16:02.562Z,17.86
2023-05-10T06:18:30.382Z,17.87
2023-05-10T06:20:58.646Z,17.95
2023-05-10T06:23:26.635Z,17.88
2023-05-10T06:25:54.640Z,17.80
2023-05-10T06:28:22.521Z,17.81
2023-05-10T06:30:52.849Z,17.83
2023-05-10T06:33:20.746Z,17.68
2023-05-10T06:35:48.499Z,17.55
2023-05-10T06:38:16.346Z,17.70
2023-05-10T06:40:44.564Z,18.03
2023-05-10T06:43:13.648Z,18.02
2023-05-10T06:45:42.151Z,18.10
2023-05-10T06:48:10.270Z,18.25
2023-05-10T06:50:38.239Z,18.57
2023-05-10T06:53:06.222Z,18.81
2023-05-10T06:55:34.514Z,18.76
2023-05-10T06:58:02.320Z,18.90
2023-05-10T07:00:30.193Z,18.85
2023-05-10T07:02:58.084Z,18.94
2023-05-10T07:05:26.049Z,18.76
2023-05-10T07:07:53.904Z,18.46
2023-05-10T07:10:21.848Z,18.30
2023-05-10T07:12:49.802Z,18.67
2023-05-10T07:15:18.439Z,18.96
2023-05-10T07:17:46.759Z,19.11
2023-05-10T07:20:14.712Z,19.43
2023-05-10T07:22:44.606Z,19.59
2023-05-10T07:25:12.452Z,19.32
2023-05-10T07:27:40.194Z,19.12
2023-05-10T07:30:08.755Z,19.06
2023-05-10T07:32:36.748Z,19.22
2023-05-10T07:35:04.872Z,19.22
2023-05-10T07:37:32.736Z,19.43
2023-05-10T07:40:03.180Z,19.53
2023-05-10T07:42:32.870Z,19.72
2023-05-10T07:45:02.995Z,20.01
2023-05-10T07:47:52.440Z,20.22
2023-05-10T07:50:20.442Z,20.08
2023-05-10T07:52:49.261Z,20.04
2023-05-10T07:55:17.299Z,19.72
2023-05-10T07:57:45.240Z,19.73
2023-05-10T08:00:14.756Z,19.73
2023-05-10T08:02:43.100Z,19.85
2023-05-10T08:05:11.710Z,19.70
2023-05-10T08:07:39.545Z,19.60
2023-05-10T08:10:08.375Z,19.32
2023-05-10T08:12:36.333Z,18.80
2023-05-10T08:15:04.741Z,18.70
2023-05-10T08:17:33.644Z,18.60
2023-05-10T08:20:01.520Z,18.52
2023-05-10T08:22:32.065Z,18.52
2023-05-10T08:24:59.821Z,18.48
2023-05-10T08:27:27.604Z,18.46
2023-05-10T08:29:55.432Z,18.36
2023-05-10T08:32:23.258Z,18.16
2023-05-10T08:34:51.137Z,18.11
2023-05-10T08:37:19.126Z,17.98
2023-05-10T08:39:49.071Z,17.62
2023-05-10T08:42:21.880Z,17.42
2023-05-10T08:44:49.885Z,17.46
2023-05-10T08:47:19.523Z,17.48
2023-05-10T08:49:50.206Z,17.41
2023-05-10T08:52:19.190Z,17.38
2023-05-10T08:54:49.051Z,17.23
2023-05-10T08:57:16.971Z,17.21
2023-05-10T08:59:45.239Z,17.33
2023-05-10T09:02:16.085Z,17.51
2023-05-10T09:04:45.857Z,17.70
2023-05-10T09:07:13.756Z,17.83
2023-05-10T09:09:41.712Z,17.95
2023-05-10T09:12:12.271Z,18.17
2023-05-10T09:14:40.337Z,18.11
2023-05-10T09:17:08.422Z,18.02
2023-05-10T09:19:37.441Z,17.65
2023-05-10T09:22:08.194Z,17.45
2023-05-10T09:24:36.252Z,17.38
2023-05-10T09:27:04.298Z,17.18
2023-05-10T09:29:42.922Z,17.04
2023-05-10T09:32:10.898Z,17.32
2023-05-10T09:34:41.279Z,17.74
2023-05-10T09:37:09.407Z,17.90
2023-05-10T09:39:42.382Z,18.01
2023-05-10T09:42:10.555Z,17.92
2023-05-10T09:44:39.331Z,17.83
2023-05-10T09:47:07.320Z,17.64
2023-05-10T09:49:36.152Z,17.63
2023-05-10T09:52:05.500Z,17.63
2023-05-10T09:54:33.883Z,17.70
2023-05-10T09:57:02.416Z,17.89
2023-05-10T09:59:30.667Z,17.79
2023-05-10T10:01:59.501Z,17.72
2023-05-10T10:04:30.908Z,17.46
2023-05-10T10:07:05.664Z,17.51
2023-05-10T10:09:36.413Z,17.61
2023-05-10T10:12:04.969Z,17.86
2023-05-10T10:14:32.950Z,18.10
2023-05-10T10:17:07.240Z,18.10
2023-05-10T10:19:39.259Z,17.90
2023-05-10T10:22:07.399Z,17.82
2023-05-10T10:24:35.363Z,17.80
2023-05-10T10:27:15.375Z,18.09
2023-05-10T10:30:00.018Z,18.16
2023-05-10T10:33:13.588Z,17.88
2023-05-10T10:35:48.851Z,17.96
2023-05-10T10:38:17.671Z,18.19
2023-05-10T10:40:45.515Z,18.00
2023-05-10T10:43:27.123Z,17.95
2023-05-10T10:46:15.173Z,17.54
2023-05-10T10:48:49.010Z,17.23
2023-05-10T10:51:16.840Z,17.16
2023-05-10T10:53:45.242Z,17.28
2023-05-10T10:56:16.327Z,17.32
2023-05-10T10:58:55.925Z,17.31
2023-05-10T11:01:23.762Z,17.35
2023-05-10T11:04:06.836Z,17.40
2023-05-10T11:06:36.212Z,17.24
2023-05-10T11:09:12.558Z,17.09
2023-05-10T11:11:56.340Z,17.03
2023-05-10T11:14:24.584Z,17.06
2023-05-10T11:16:52.759Z,17.29
2023-05-10T11:19:21.199Z,17.56
2023-05-10T11:21:55.404Z,17.77
2023-05-10T11:24:26.919Z,17.79
2023-05-10T11:26:55.094Z,17.83
2023-05-10T11:29:23.381Z,17.86
2023-05-10T11:31:51.965Z,17.92
2023-05-10T11:34:27.872Z,17.81
2023-05-10T11:36:57.388Z,17.59
2023-05-10T11:39:29.227Z,17.68
2023-05-10T11:41:58.221Z,17.84
2023-05-10T11:44:33.626Z,17.86
2023-05-10T11:47:04.575Z,17.92
2023-05-10T11:49:32.541Z,18.02
2023-05-10T11:52:12.114Z,18.18
2023-05-10T11:54:54.936Z,18.27
2023-05-10T11:57:27.890Z,18.27
2023-05-10T11:59:58.310Z,18.23
2023-05-10T12:02:26.661Z,18.17
2023-05-10T12:04:54.545Z,18.17
2023-05-10T12:07:24.469Z,18.17
2023-05-10T12:10:09.109Z,18.23
2023-05-10T12:12:48.535Z,18.33
2023-05-10T12:15:22.995Z,18.39
2023-05-10T12:17:51.643Z,18.34
2023-05-10T12:20:23.336Z,18.20
2023-05-10T12:23:00.493Z,17.72
2023-05-10T12:25:36.554Z,17.30
2023-05-10T12:28:06.705Z,17.21
2023-05-10T12:30:36.134Z,17.28
2023-05-10T12:33:08.940Z,17.40
2023-05-10T12:35:48.061Z,17.52
2023-05-10T12:38:35.982Z,17.59
2023-05-10T12:41:14.186Z,17.58
2023-05-10T12:43:42.623Z,17.65
2023-05-10T12:46:12.383Z,17.74
2023-05-10T12:48:41.455Z,17.61
2023-05-10T12:51:10.684Z,17.51
2023-05-10T12:53:41.531Z,17.26
2023-05-10T12:56:11.264Z,17.03
2023-05-10T12:58:39.606Z,16.96
2023-05-10T13:01:07.564Z,17.06
2023-05-10T13:03:35.604Z,17.09
2023-05-10T13:06:03.786Z,17.02
2023-05-10T13:08:34.650Z,17.07
2023-05-10T13:11:03.389Z,17.20
2023-05-10T13:13:31.247Z,17.29
2023-05-10T13:15:59.226Z,17.33
2023-05-10T13:18:27.678Z,17.33
2023-05-10T13:20:56.855Z,17.33
2023-05-10T13:23:27.917Z,17.32
2023-05-10T13:25:56.914Z,17.24
2023-05-10T13:28:46.456Z,17.05
2023-05-10T13:31:14.677Z,16.95
2023-05-10T13:33:42.477Z,16.90
2023-05-10T13:36:18.258Z,16.84
2023-05-10T13:38:46.085Z,16.82
2023-05-10T13:41:23.129Z,16.53
2023-05-10T13:43:54.630Z,16.78
2023-05-10T13:46:22.477Z,16.59
2023-05-10T13:48:50.505Z,16.53
2023-05-10T13:51:18.288Z,16.36
2023-05-10T13:53:48.068Z,16.11
2023-05-10T13:56:17.489Z,15.91
2023-05-10T13:58:45.398Z,15.78
2023-05-10T14:01:13.429Z,15.69
2023-05-10T14:03:41.379Z,15.61
2023-05-10T14:06:09.524Z,15.64
2023-05-10T14:08:37.685Z,15.67
2023-05-10T14:11:05.596Z,15.83
2023-05-10T14:13:34.007Z,15.95
2023-05-10T14:16:02.242Z,16.05
2023-05-10T14:18:30.373Z,16.13
2023-05-10T14:20:58.195Z,16.19
2023-05-10T14:23:26.883Z,16.25
2023-05-10T14:25:54.775Z,16.27
2023-05-10T14:28:23.829Z,16.15
2023-05-10T14:30:52.043Z,16.08
2023-05-10T14:33:20.354Z,16.00
2023-05-10T14:35:48.947Z,16.02
2023-05-10T14:38:16.728Z,15.93
2023-05-10T14:40:44.706Z,15.95
2023-05-10T14:43:12.651Z,15.84
2023-05-10T14:45:43.496Z,15.90
2023-05-10T14:48:16.593Z,15.93
2023-05-10T14:50:46.182Z,15.94
2023-05-10T14:53:13.980Z,15.95
2023-05-10T14:55:42.052Z,15.96
2023-05-10T14:58:10.052Z,15.92
2023-05-10T15:00:37.947Z,16.00
2023-05-10T15:03:06.333Z,15.86
2023-05-10T15:05:34.915Z,15.79
2023-05-10T15:08:03.182Z,15.71
2023-05-10T15:10:33.167Z,15.73
2023-05-10T15:13:02.654Z,15.78
2023-05-10T15:15:30.650Z,15.80
2023-05-10T15:17:58.563Z,15.81
2023-05-10T15:20:29.036Z,15.75
2023-05-10T15:22:59.438Z,15.72
2023-05-10T15:25:30.058Z,15.68
2023-05-10T15:27:58.119Z,15.62
2023-05-10T15:30:28.554Z,15.54
2023-05-10T15:32:58.095Z,15.44
2023-05-10T15:35:27.444Z,15.41
2023-05-10T15:37:55.423Z,15.41
2023-05-10T15:40:24.081Z,15.39
2023-05-10T15:42:52.382Z,15.37
2023-05-10T15:45:20.485Z,15.26
2023-05-10T15:47:49.154Z,15.25
2023-05-10T15:50:17.804Z,15.12
2023-05-10T15:52:45.947Z,15.12
2023-05-10T15:55:16.521Z,15.11
2023-05-10T15:57:44.806Z,15.16
2023-05-10T16:00:13.609Z,15.10
2023-05-10T16:02:42.579Z,15.11
2023-05-10T16:05:11.083Z,15.10
2023-05-10T16:07:39.900Z,15.04
2023-05-10T16:10:10.288Z,15.00
2023-05-10T16:12:38.878Z,14.90
2023-05-10T16:15:07.499Z,14.89
2023-05-10T16:17:35.554Z,14.79
2023-05-10T16:20:03.595Z,14.84
2023-05-10T16:22:31.888Z,14.79
2023-05-10T16:24:59.746Z,14.74
2023-05-10T16:27:30.290Z,14.76
2023-05-10T16:29:58.194Z,14.74
2023-05-10T16:32:26.331Z,14.70
2023-05-10T16:34:54.181Z,14.64
2023-05-10T16:37:22.031Z,14.65
2023-05-10T16:39:49.853Z,14.62
2023-05-10T16:42:17.702Z,14.64
2023-05-10T16:44:45.603Z,14.55
2023-05-10T16:47:13.513Z,14.57
2023-05-10T16:49:43.650Z,14.55
2023-05-10T16:52:11.609Z,14.48
2023-05-10T16:54:39.441Z,14.45
2023-05-10T16:57:08.712Z,14.44
2023-05-10T16:59:36.547Z,14.41
2023-05-10T17:02:04.454Z,14.34
2023-05-10T17:04:32.298Z,14.40
2023-05-10T17:07:00.081Z,14.38
2023-05-10T17:09:28.086Z,14.34
2023-05-10T17:11:55.910Z,14.30
2023-05-10T17:14:23.699Z,14.34
2023-05-10T17:16:53.228Z,14.32
2023-05-10T17:19:23.032Z,14.30
2023-05-10T17:21:52.072Z,14.26
2023-05-10T17:24:20.006Z,14.29
2023-05-10T17:26:47.897Z,14.28
2023-05-10T17:29:18.201Z,14.28
2023-05-10T17:31:46.051Z,14.22
2023-05-10T17:34:13.948Z,14.24
2023-05-10T17:36:41.732Z,14.22
2023-05-10T17:39:09.871Z,14.19
2023-05-10T17:41:37.956Z,14.12
2023-05-10T17:44:05.733Z,14.16
2023-05-10T17:46:33.821Z,14.17
2023-05-10T17:49:01.538Z,14.14
2023-05-10T17:51:29.662Z,14.16
2023-05-10T17:53:57.473Z,14.07
2023-05-10T17:56:25.671Z,14.10
2023-05-10T17:58:53.420Z,14.08
2023-05-10T18:01:21.366Z,14.04
2023-05-10T18:03:49.902Z,13.99
2023-05-10T18:06:17.989Z,13.95
2023-05-10T18:08:45.864Z,13.93
2023-05-10T18:11:16.486Z,13.94
2023-05-10T18:13:44.380Z,13.88
2023-05-10T18:16:13.664Z,13.88
2023-05-10T18:18:41.700Z,13.88
2023-05-10T18:21:11.953Z,13.83
2023-05-10T18:23:39.865Z,13.77
2023-05-10T18:26:08.468Z,13.75
2023-05-10T18:28:37.167Z,13.74
2023-05-10T18:31:05.183Z,13.71
2023-05-10T18:33:33.239Z,13.62
2023-05-10T18:36:04.371Z,13.64
2023-05-10T18:38:32.408Z,13.62
2023-05-10T18:41:03.873Z,13.57
2023-05-10T18:43:34.578Z,13.51
2023-05-10T18:46:02.566Z,13.50
2023-05-10T18:48:30.390Z,13.47
2023-05-10T18:50:58.217Z,13.48
2023-05-10T18:53:26.032Z,13.46
2023-05-10T18:56:00.128Z,13.42
2023-05-10T18:58:28.875Z,13.42
2023-05-10T19:00:57.128Z,13.38
2023-05-10T19:03:24.978Z,13.29
2023-05-10T19:05:52.769Z,13.36
2023-05-10T19:08:20.867Z,13.33
2023-05-10T19:10:48.790Z,13.32
2023-05-10T19:13:16.590Z,13.27
2023-05-10T19:15:48.956Z,13.24
2023-05-10T19:18:17.739Z,13.24
2023-05-10T19:20:46.866Z,13.21
2023-05-10T19:23:16.208Z,13.21
2023-05-10T19:25:45.678Z,13.22
2023-05-10T19:28:14.883Z,13.18
2023-05-10T19:30:49.849Z,13.11
2023-05-10T19:33:18.705Z,13.19
2023-05-10T19:35:46.821Z,12.98
2023-05-10T19:38:14.812Z,13.16
2023-05-10T19:40:42.816Z,13.15
2023-05-10T19:43:10.978Z,12.96
2023-05-10T19:45:41.649Z,13.07
2023-05-10T19:48:11.075Z,13.04
2023-05-10T19:50:39.520Z,13.04
2023-05-10T19:53:08.134Z,13.08
2023-05-10T19:55:38.897Z,13.02
2023-05-10T19:58:06.791Z,13.00
2023-05-10T20:00:35.957Z,12.97
2023-05-10T20:03:08.442Z,12.99
2023-05-10T20:05:37.397Z,12.95
2023-05-10T20:08:05.252Z,12.90
2023-05-10T20:10:33.176Z,12.91
2023-05-10T20:13:01.052Z,12.87
2023-05-10T20:15:30.070Z,12.90
2023-05-10T20:17:58.089Z,12.86
2023-05-10T20:20:26.122Z,12.84
2023-05-10T20:22:53.879Z,12.76
2023-05-10T20:25:23.377Z,12.74
2023-05-10T20:27:54.858Z,12.69
2023-05-10T20:30:31.877Z,12.64
2023-05-10T20:33:04.625Z,12.60
2023-05-10T20:35:36.023Z,12.61
2023-05-10T20:38:04.337Z,12.61
2023-05-10T20:40:32.930Z,12.66
2023-05-10T20:43:00.892Z,12.58
2023-05-10T20:45:28.843Z,12.63
2023-05-10T20:47:57.236Z,12.59
2023-05-10T20:50:25.122Z,12.63
2023-05-10T20:52:53.056Z,12.63
2023-05-10T20:55:21.032Z,12.59
2023-05-10T20:57:50.190Z,12.56
2023-05-10T21:00:18.574Z,12.58
2023-05-10T21:02:46.791Z,12.58
2023-05-10T21:05:17.869Z,12.59
2023-05-10T21:07:49.648Z,12.63
2023-05-10T21:10:28.449Z,12.64
2023-05-10T21:12:56.910Z,12.64
2023-05-10T21:15:25.748Z,12.57
2023-05-10T21:17:59.239Z,12.60
2023-05-10T21:20:27.261Z,12.58
2023-05-10T21:22:55.259Z,12.54
2023-05-10T21:25:25.781Z,12.58
2023-05-10T21:27:53.550Z,12.49
2023-05-10T21:30:21.317Z,12.56
2023-05-10T21:32:49.238Z,12.50
2023-05-10T21:35:17.150Z,12.45
2023-05-10T21:37:44.955Z,12.46
2023-05-10T21:40:13.214Z,12.40
2023-05-10T21:42:41.048Z,12.38
2023-05-10T21:45:09.131Z,12.33
2023-05-10T21:47:37.371Z,12.25
2023-05-10T21:50:05.626Z,12.24
2023-05-10T21:52:33.727Z,12.15
2023-05-10T21:55:01.511Z,12.15
2023-05-10T21:57:30.023Z,12.10
2023-05-10T21:59:57.924Z,12.04
2023-05-10T22:02:25.966Z,12.01
2023-05-10T22:04:53.846Z,11.98
2023-05-10T22:07:21.744Z,11.97
2023-05-10T22:09:49.571Z,11.97
2023-05-10T22:12:17.399Z,11.95
2023-05-10T22:14:45.205Z,11.95
2023-05-10T22:17:13.201Z,11.96
2023-05-10T22:19:45.642Z,11.96
2023-05-10T22:22:13.497Z,11.94
2023-05-10T22:24:41.652Z,11.90
2023-05-10T22:27:09.474Z,11.87
2023-05-10T22:29:37.409Z,11.85
2023-05-10T22:32:06.546Z,11.83
2023-05-10T22:34:35.935Z,11.83
2023-05-10T22:37:04.168Z,11.82
2023-05-10T22:39:31.959Z,11.79
2023-05-10T22:41:59.753Z,11.78
2023-05-10T22:44:27.872Z,11.77
2023-05-10T22:46:55.731Z,11.76
2023-05-10T22:49:23.704Z,11.77
2023-05-10T22:51:51.581Z,11.77
2023-05-10T22:54:19.439Z,11.79
2023-05-10T22:56:47.247Z,11.79
2023-05-10T22:59:15.064Z,11.80
2023-05-10T23:01:43.045Z,11.76
2023-05-10T23:04:10.973Z,11.75
2023-05-10T23:06:39.745Z,11.77
2023-05-10T23:09:07.522Z,11.72
2023-05-10T23:11:35.417Z,11.71
2023-05-10T23:14:03.338Z,11.72
2023-05-10T23:16:31.525Z,11.72
2023-05-10T23:18:59.516Z,11.70
2023-05-10T23:21:28.772Z,11.66
2023-05-10T23:23:57.744Z,11.65
2023-05-10T23:26:25.753Z,11.59
2023-05-10T23:28:53.581Z,11.59
2023-05-10T23:31:21.680Z,11.58
2023-05-10T23:33:49.404Z,11.53
2023-05-10T23:36:17.210Z,11.51
2023-05-10T23:38:45.041Z,11.47
2023-05-10T23:41:13.035Z,11.45
2023-05-10T23:43:40.795Z,11.47
2023-05-10T23:46:08.631Z,11.47
2023-05-10T23:48:36.506Z,11.44
2023-05-10T23:51:04.492Z,11.47
2023-05-10T23:53:32.291Z,11.45
2023-05-10T23:56:00.115Z,11.42
2023-05-10T23:58:27.923Z,11.40
